sensor_id;sensor_type;location;lat;lon;timestamp;pressure;altitude;pressure_sealevel;temperature;humidity
74942;BME280;63506;49.346;8.798;2022-09-17T00:01:15;99790.22;;;17.29;58.07
74942;BME280;63506;49.346;8.798;2022-09-17T00:03:42;99790.38;;;17.27;57.79
74942;BME280;63506;49.346;8.798;2022-09-17T00:06:11;99800.28;;;17.25;57.93
74942;BME280;63506;49.346;8.798;2022-09-17T00:08:39;99792.16;;;17.27;57.99
74942;BME280;63506;49.346;8.798;2022-09-17T00:11:14;99792.16;;;17.27;57.94
74942;BME280;63506;49.346;8.798;2022-09-17T00:13:41;99795.00;;;17.25;58.08
74942;BME280;63506;49.346;8.798;2022-09-17T00:16:07;99791.34;;;17.26;57.94
74942;BME280;63506;49.346;8.798;2022-09-17T00:18:33;99793.16;;;17.26;57.77
74942;BME280;63506;49.346;8.798;2022-09-17T00:21:02;99790.84;;;17.23;57.85
74942;BME280;63506;49.346;8.798;2022-09-17T00:23:28;99791.44;;;17.16;57.77
74942;BME280;63506;49.346;8.798;2022-09-17T00:25:54;99808.94;;;17.17;58.04
74942;BME280;63506;49.346;8.798;2022-09-17T00:28:23;99812.88;;;17.13;57.77
74942;BME280;63506;49.346;8.798;2022-09-17T00:30:54;99801.84;;;17.18;57.67
74942;BME280;63506;49.346;8.798;2022-09-17T00:33:20;99804.47;;;17.18;57.62
74942;BME280;63506;49.346;8.798;2022-09-17T00:35:57;99808.13;;;17.17;57.74
74942;BME280;63506;49.346;8.798;2022-09-17T00:38:24;99813.69;;;17.14;57.49
74942;BME280;63506;49.346;8.798;2022-09-17T00:40:50;99809.09;;;17.16;57.72
74942;BME280;63506;49.346;8.798;2022-09-17T00:43:39;99807.75;;;17.12;57.53
74942;BME280;63506;49.346;8.798;2022-09-17T00:46:18;99812.19;;;17.11;57.43
74942;BME280;63506;49.346;8.798;2022-09-17T00:48:50;99813.84;;;17.12;57.50
74942;BME280;63506;49.346;8.798;2022-09-17T00:51:25;99815.38;;;17.15;57.47
74942;BME280;63506;49.346;8.798;2022-09-17T00:53:54;99815.81;;;17.10;57.47
74942;BME280;63506;49.346;8.798;2022-09-17T00:56:28;99813.34;;;17.09;57.59
74942;BME280;63506;49.346;8.798;2022-09-17T00:58:56;99818.47;;;17.10;57.53
74942;BME280;63506;49.346;8.798;2022-09-17T01:01:25;99810.84;;;17.07;57.47
74942;BME280;63506;49.346;8.798;2022-09-17T01:03:51;99811.66;;;17.08;57.46
74942;BME280;63506;49.346;8.798;2022-09-17T01:06:46;99816.78;;;17.09;57.46
74942;BME280;63506;49.346;8.798;2022-09-17T01:09:33;99810.84;;;17.07;57.57
74942;BME280;63506;49.346;8.798;2022-09-17T01:12:26;99819.72;;;17.06;57.64
74942;BME280;63506;49.346;8.798;2022-09-17T01:32:08;99815.16;;;17.08;57.70
74942;BME280;63506;49.346;8.798;2022-09-17T01:34:44;99820.56;;;17.07;57.92
74942;BME280;63506;49.346;8.798;2022-09-17T01:37:27;99818.75;;;17.07;57.77
74942;BME280;63506;49.346;8.798;2022-09-17T01:45:24;99824.13;;;16.97;57.84
74942;BME280;63506;49.346;8.798;2022-09-17T01:47:56;99818.53;;;17.00;57.76
74942;BME280;63506;49.346;8.798;2022-09-17T01:50:26;99822.00;;;17.01;57.86
74942;BME280;63506;49.346;8.798;2022-09-17T01:52:56;99826.75;;;16.97;57.70
74942;BME280;63506;49.346;8.798;2022-09-17T01:55:29;99827.59;;;16.98;57.60
74942;BME280;63506;49.346;8.798;2022-09-17T02:00:32;99815.53;;;16.95;57.29
74942;BME280;63506;49.346;8.798;2022-09-17T02:03:10;99818.16;;;16.95;57.37
74942;BME280;63506;49.346;8.798;2022-09-17T02:05:46;99821.63;;;16.96;57.48
74942;BME280;63506;49.346;8.798;2022-09-17T02:08:17;99819.13;;;16.94;57.55
74942;BME280;63506;49.346;8.798;2022-09-17T02:10:49;99822.63;;;16.95;57.23
74942;BME280;63506;49.346;8.798;2022-09-17T02:13:45;99827.38;;;16.91;57.32
74942;BME280;63506;49.346;8.798;2022-09-17T02:16:13;99821.94;;;16.93;57.22
74942;BME280;63506;49.346;8.798;2022-09-17T02:18:48;99824.41;;;16.94;57.33
74942;BME280;63506;49.346;8.798;2022-09-17T02:26:28;99825.84;;;16.89;57.19
74942;BME280;63506;49.346;8.798;2022-09-17T02:29:06;99833.78;;;16.89;56.97
74942;BME280;63506;49.346;8.798;2022-09-17T02:31:33;99833.47;;;16.92;57.09
74942;BME280;63506;49.346;8.798;2022-09-17T02:34:00;99835.59;;;16.88;57.28
74942;BME280;63506;49.346;8.798;2022-09-17T02:36:28;99833.09;;;16.87;56.86
74942;BME280;63506;49.346;8.798;2022-09-17T02:38:58;99821.72;;;16.86;57.30
74942;BME280;63506;49.346;8.798;2022-09-17T02:41:46;99820.88;;;16.86;57.08
74942;BME280;63506;49.346;8.798;2022-09-17T02:44:25;99827.81;;;16.87;56.93
74942;BME280;63506;49.346;8.798;2022-09-17T02:49:57;99828.09;;;16.83;57.10
74942;BME280;63506;49.346;8.798;2022-09-17T02:53:26;99834.22;;;16.84;56.81
74942;BME280;63506;49.346;8.798;2022-09-17T02:55:47;99838.63;;;16.83;56.74
74942;BME280;63506;49.346;8.798;2022-09-17T03:00:43;99823.97;;;16.81;56.81
74942;BME280;63506;49.346;8.798;2022-09-17T03:03:31;99826.59;;;16.81;57.04
74942;BME280;63506;49.346;8.798;2022-09-17T03:06:03;99825.88;;;16.79;56.82
74942;BME280;63506;49.346;8.798;2022-09-17T03:08:39;99828.38;;;16.80;56.92
74942;BME280;63506;49.346;8.798;2022-09-17T03:11:06;99821.75;;;16.76;57.04
74942;BME280;63506;49.346;8.798;2022-09-17T03:13:34;99829.38;;;16.79;56.81
74942;BME280;63506;49.346;8.798;2022-09-17T03:16:05;99825.06;;;16.78;57.01
74942;BME280;63506;49.346;8.798;2022-09-17T03:18:35;99831.88;;;16.81;56.84
74942;BME280;63506;49.346;8.798;2022-09-17T03:21:02;99829.69;;;16.76;56.95
74942;BME280;63506;49.346;8.798;2022-09-17T03:23:28;99833.41;;;16.74;57.02
74942;BME280;63506;49.346;8.798;2022-09-17T03:25:54;99834.41;;;16.73;57.16
74942;BME280;63506;49.346;8.798;2022-09-17T03:28:21;99831.13;;;16.71;57.06
74942;BME280;63506;49.346;8.798;2022-09-17T03:30:47;99833.41;;;16.74;57.35
74942;BME280;63506;49.346;8.798;2022-09-17T03:33:15;99839.25;;;16.77;57.15
74942;BME280;63506;49.346;8.798;2022-09-17T03:35:45;99829.81;;;16.75;57.24
74942;BME280;63506;49.346;8.798;2022-09-17T03:38:16;99835.78;;;16.77;57.06
74942;BME280;63506;49.346;8.798;2022-09-17T03:40:55;99827.03;;;16.76;57.24
74942;BME280;63506;49.346;8.798;2022-09-17T03:43:24;99827.34;;;16.73;57.54
74942;BME280;63506;49.346;8.798;2022-09-17T03:45:53;99825.22;;;16.77;57.29
74942;BME280;63506;49.346;8.798;2022-09-17T03:48:22;99826.06;;;16.77;57.31
74942;BME280;63506;49.346;8.798;2022-09-17T03:50:50;99834.81;;;16.78;57.59
74942;BME280;63506;49.346;8.798;2022-09-17T03:53:16;99845.66;;;16.75;57.44
74942;BME280;63506;49.346;8.798;2022-09-17T03:55:45;99845.13;;;16.71;57.61
74942;BME280;63506;49.346;8.798;2022-09-17T03:58:13;99841.50;;;16.72;57.49
74942;BME280;63506;49.346;8.798;2022-09-17T04:00:41;99847.59;;;16.73;57.41
74942;BME280;63506;49.346;8.798;2022-09-17T04:03:10;99843.16;;;16.73;57.66
74942;BME280;63506;49.346;8.798;2022-09-17T04:05:38;99849.94;;;16.76;57.60
74942;BME280;63506;49.346;8.798;2022-09-17T04:08:09;99854.69;;;16.72;57.75
74942;BME280;63506;49.346;8.798;2022-09-17T04:10:35;99856.34;;;16.73;57.68
74942;BME280;63506;49.346;8.798;2022-09-17T04:13:06;99853.69;;;16.73;57.69
74942;BME280;63506;49.346;8.798;2022-09-17T04:15:37;99846.94;;;16.71;57.75
74942;BME280;63506;49.346;8.798;2022-09-17T04:18:03;99857.63;;;16.69;57.48
74942;BME280;63506;49.346;8.798;2022-09-17T04:20:29;99853.31;;;16.68;57.29
74942;BME280;63506;49.346;8.798;2022-09-17T04:22:56;99845.94;;;16.72;57.62
74942;BME280;63506;49.346;8.798;2022-09-17T04:25:22;99843.97;;;16.74;57.68
74942;BME280;63506;49.346;8.798;2022-09-17T04:27:48;99845.94;;;16.72;57.41
74942;BME280;63506;49.346;8.798;2022-09-17T04:30:18;99849.44;;;16.72;57.38
74942;BME280;63506;49.346;8.798;2022-09-17T04:32:45;99860.94;;;16.71;57.49
74942;BME280;63506;49.346;8.798;2022-09-17T04:35:11;99858.00;;;16.74;57.47
74942;BME280;63506;49.346;8.798;2022-09-17T04:37:42;99866.75;;;16.75;57.63
74942;BME280;63506;49.346;8.798;2022-09-17T04:40:10;99860.66;;;16.74;57.73
74942;BME280;63506;49.346;8.798;2022-09-17T04:42:37;99867.88;;;16.72;57.34
74942;BME280;63506;49.346;8.798;2022-09-17T04:45:07;99875.81;;;16.72;57.68
74942;BME280;63506;49.346;8.798;2022-09-17T04:47:39;99869.00;;;16.70;57.61
74942;BME280;63506;49.346;8.798;2022-09-17T04:50:07;99873.16;;;16.72;57.56
74942;BME280;63506;49.346;8.798;2022-09-17T04:52:41;99875.63;;;16.74;57.62
74942;BME280;63506;49.346;8.798;2022-09-17T04:55:07;99866.22;;;16.71;57.57
74942;BME280;63506;49.346;8.798;2022-09-17T04:57:45;99875.25;;;16.69;57.45
74942;BME280;63506;49.346;8.798;2022-09-17T05:00:15;99873.44;;;16.69;57.26
74942;BME280;63506;49.346;8.798;2022-09-17T05:02:44;99879.53;;;16.70;57.41
74942;BME280;63506;49.346;8.798;2022-09-17T05:05:16;99883.00;;;16.70;57.38
74942;BME280;63506;49.346;8.798;2022-09-17T05:07:43;99882.72;;;16.73;57.59
74942;BME280;63506;49.346;8.798;2022-09-17T05:10:13;99881.91;;;16.73;57.53
74942;BME280;63506;49.346;8.798;2022-09-17T05:12:40;99882.19;;;16.70;57.28
74942;BME280;63506;49.346;8.798;2022-09-17T05:15:13;99887.47;;;16.70;57.21
74942;BME280;63506;49.346;8.798;2022-09-17T05:17:39;99879.53;;;16.70;57.28
74942;BME280;63506;49.346;8.798;2022-09-17T05:20:06;99887.59;;;16.68;57.36
74942;BME280;63506;49.346;8.798;2022-09-17T05:22:34;99885.25;;;16.65;57.31
74942;BME280;63506;49.346;8.798;2022-09-17T05:25:03;99891.38;;;16.66;57.16
74942;BME280;63506;49.346;8.798;2022-09-17T05:27:31;99892.19;;;16.66;57.39
74942;BME280;63506;49.346;8.798;2022-09-17T05:29:57;99892.06;;;16.68;57.55
74942;BME280;63506;49.346;8.798;2022-09-17T05:32:28;99898.16;;;16.68;57.78
74942;BME280;63506;49.346;8.798;2022-09-17T05:34:59;99902.75;;;16.66;57.59
74942;BME280;63506;49.346;8.798;2022-09-17T05:37:25;99907.06;;;16.67;57.65
74942;BME280;63506;49.346;8.798;2022-09-17T05:39:54;99910.38;;;16.69;57.91
74942;BME280;63506;49.346;8.798;2022-09-17T05:42:22;99921.59;;;16.71;57.97
74942;BME280;63506;49.346;8.798;2022-09-17T05:44:53;99923.56;;;16.69;58.29
74942;BME280;63506;49.346;8.798;2022-09-17T05:47:21;99918.56;;;16.66;58.33
74942;BME280;63506;49.346;8.798;2022-09-17T05:49:52;99919.41;;;16.67;58.31
74942;BME280;63506;49.346;8.798;2022-09-17T05:52:18;99923.56;;;16.69;58.37
74942;BME280;63506;49.346;8.798;2022-09-17T05:54:44;99926.34;;;16.68;58.31
74942;BME280;63506;49.346;8.798;2022-09-17T05:57:13;99929.25;;;16.64;58.42
74942;BME280;63506;49.346;8.798;2022-09-17T05:59:46;99930.41;;;16.62;58.71
74942;BME280;63506;49.346;8.798;2022-09-17T06:02:15;99935.34;;;16.65;58.79
74942;BME280;63506;49.346;8.798;2022-09-17T06:04:41;99931.75;;;16.66;58.84
74942;BME280;63506;49.346;8.798;2022-09-17T06:07:07;99927.44;;;16.65;58.92
74942;BME280;63506;49.346;8.798;2022-09-17T06:09:35;99922.50;;;16.62;59.22
74942;BME280;63506;49.346;8.798;2022-09-17T06:12:05;99933.88;;;16.62;59.12
74942;BME280;63506;49.346;8.798;2022-09-17T06:14:32;99934.69;;;16.63;59.00
74942;BME280;63506;49.346;8.798;2022-09-17T06:16:58;99940.09;;;16.61;59.06
74942;BME280;63506;49.346;8.798;2022-09-17T06:19:26;99939.41;;;16.59;59.37
74942;BME280;63506;49.346;8.798;2022-09-17T06:21:52;99945.22;;;16.63;59.15
74942;BME280;63506;49.346;8.798;2022-09-17T06:24:21;99937.47;;;16.61;59.30
74942;BME280;63506;49.346;8.798;2022-09-17T06:26:52;99935.50;;;16.63;59.21
74942;BME280;63506;49.346;8.798;2022-09-17T06:29:23;99939.97;;;16.63;59.24
74942;BME280;63506;49.346;8.798;2022-09-17T06:31:51;99939.81;;;16.64;59.25
74942;BME280;63506;49.346;8.798;2022-09-17T06:34:20;99945.34;;;16.71;59.20
74942;BME280;63506;49.346;8.798;2022-09-17T06:36:48;99941.72;;;16.72;59.43
74942;BME280;63506;49.346;8.798;2022-09-17T06:39:16;99954.22;;;16.70;59.46
74942;BME280;63506;49.346;8.798;2022-09-17T06:41:42;99952.72;;;16.68;59.59
74942;BME280;63506;49.346;8.798;2022-09-17T06:44:17;99952.72;;;16.68;59.90
74942;BME280;63506;49.346;8.798;2022-09-17T06:46:48;99954.53;;;16.67;59.69
74942;BME280;63506;49.346;8.798;2022-09-17T06:49:17;99955.63;;;16.64;59.93
74942;BME280;63506;49.346;8.798;2022-09-17T06:51:44;99953.66;;;16.67;60.06
74942;BME280;63506;49.346;8.798;2022-09-17T06:54:12;99950.22;;;16.66;60.00
74942;BME280;63506;49.346;8.798;2022-09-17T06:56:41;99948.94;;;16.70;60.02
74942;BME280;63506;49.346;8.798;2022-09-17T06:59:12;99950.59;;;16.71;59.70
74942;BME280;63506;49.346;8.798;2022-09-17T07:01:40;99947.69;;;16.74;59.71
74942;BME280;63506;49.346;8.798;2022-09-17T07:04:06;99952.81;;;16.76;59.54
74942;BME280;63506;49.346;8.798;2022-09-17T07:06:32;99950.31;;;16.74;59.50
74942;BME280;63506;49.346;8.798;2022-09-17T07:08:59;99956.66;;;16.81;59.94
74942;BME280;63506;49.346;8.798;2022-09-17T07:11:29;99960.41;;;16.79;59.93
74942;BME280;63506;49.346;8.798;2022-09-17T07:13:56;99953.63;;;16.76;59.84
74942;BME280;63506;49.346;8.798;2022-09-17T07:16:24;99951.81;;;16.77;59.99
74942;BME280;63506;49.346;8.798;2022-09-17T07:18:57;99956.66;;;16.81;60.44
74942;BME280;63506;49.346;8.798;2022-09-17T07:21:24;99959.28;;;16.81;60.27
74942;BME280;63506;49.346;8.798;2022-09-17T07:23:54;99963.47;;;16.84;60.32
74942;BME280;63506;49.346;8.798;2022-09-17T07:26:22;99961.69;;;16.85;60.72
74942;BME280;63506;49.346;8.798;2022-09-17T07:28:54;99961.94;;;16.81;60.51
74942;BME280;63506;49.346;8.798;2022-09-17T07:31:20;99957.63;;;16.80;60.54
74942;BME280;63506;49.346;8.798;2022-09-17T07:33:48;99963.50;;;16.74;60.62
74942;BME280;63506;49.346;8.798;2022-09-17T07:36:17;99965.25;;;16.83;60.62
74942;BME280;63506;49.346;8.798;2022-09-17T07:38:43;99971.84;;;16.97;60.82
74942;BME280;63506;49.346;8.798;2022-09-17T07:41:14;99979.78;;;16.97;60.74
74942;BME280;63506;49.346;8.798;2022-09-17T07:43:43;99968.84;;;16.92;60.81
74942;BME280;63506;49.346;8.798;2022-09-17T07:46:17;99973.56;;;16.89;60.89
74942;BME280;63506;49.346;8.798;2022-09-17T07:48:44;99976.72;;;17.20;62.89
74942;BME280;63506;49.346;8.798;2022-09-17T07:51:19;99975.44;;;17.42;61.45
74942;BME280;63506;49.346;8.798;2022-09-17T07:53:55;99971.53;;;17.46;62.00
74942;BME280;63506;49.346;8.798;2022-09-17T07:56:23;99979.66;;;17.53;61.58
74942;BME280;63506;49.346;8.798;2022-09-17T07:58:50;99981.91;;;17.66;61.04
74942;BME280;63506;49.346;8.798;2022-09-17T08:01:19;99978.06;;;17.78;60.40
74942;BME280;63506;49.346;8.798;2022-09-17T08:03:50;99978.75;;;17.80;60.14
74942;BME280;63506;49.346;8.798;2022-09-17T08:06:24;99978.38;;;17.75;60.18
74942;BME280;63506;49.346;8.798;2022-09-17T08:08:57;99986.06;;;17.68;60.40
74942;BME280;63506;49.346;8.798;2022-09-17T08:11:26;99980.94;;;17.67;60.48
74942;BME280;63506;49.346;8.798;2022-09-17T08:13:53;99988.56;;;17.70;60.47
74942;BME280;63506;49.346;8.798;2022-09-17T08:16:20;99985.78;;;17.71;60.26
74942;BME280;63506;49.346;8.798;2022-09-17T08:18:48;99993.50;;;17.73;60.23
74942;BME280;63506;49.346;8.798;2022-09-17T08:21:19;99995.19;;;17.74;60.03
74942;BME280;63506;49.346;8.798;2022-09-17T08:23:45;99990.56;;;17.76;60.09
74942;BME280;63506;49.346;8.798;2022-09-17T08:26:20;99995.94;;;17.84;59.63
74942;BME280;63506;49.346;8.798;2022-09-17T08:28:51;99992.63;;;17.82;59.93
74942;BME280;63506;49.346;8.798;2022-09-17T08:31:23;99994.44;;;17.82;59.84
74942;BME280;63506;49.346;8.798;2022-09-17T08:33:53;99987.63;;;17.79;59.92
74942;BME280;63506;49.346;8.798;2022-09-17T08:36:24;99999.56;;;17.83;59.87
74942;BME280;63506;49.346;8.798;2022-09-17T08:38:54;100001.75;;;17.88;59.83
74942;BME280;63506;49.346;8.798;2022-09-17T08:41:22;100000.13;;;17.87;59.71
74942;BME280;63506;49.346;8.798;2022-09-17T08:46:32;100000.53;;;18.00;59.44
74942;BME280;63506;49.346;8.798;2022-09-17T08:54:45;99996.28;;;18.68;61.16
74942;BME280;63506;49.346;8.798;2022-09-17T09:07:05;62790.56;;;-145.49;100.00
74942;BME280;63506;49.346;8.798;2022-09-17T09:09:45;62790.56;;;-145.49;100.00
74942;BME280;63506;49.346;8.798;2022-09-17T09:12:21;62790.56;;;-145.49;100.00
74942;BME280;63506;49.346;8.798;2022-09-17T09:14:57;62790.56;;;-145.49;100.00
74942;BME280;63506;49.346;8.798;2022-09-17T09:17:33;62790.56;;;-145.49;100.00
74942;BME280;63506;49.346;8.798;2022-09-17T09:20:23;62790.56;;;-145.49;100.00
74942;BME280;63506;49.346;8.798;2022-09-17T09:23:00;62790.56;;;-145.49;100.00
74942;BME280;63506;49.346;8.798;2022-09-17T09:25:38;62790.56;;;-145.49;100.00
74942;BME280;63506;49.346;8.798;2022-09-17T09:31:12;62790.56;;;-145.49;100.00
74942;BME280;63506;49.346;8.798;2022-09-17T09:33:44;62790.56;;;-145.49;100.00
74942;BME280;63506;49.346;8.798;2022-09-17T09:36:18;62790.56;;;-145.49;100.00
74942;BME280;63506;49.346;8.798;2022-09-17T09:41:30;62790.56;;;-145.49;100.00
74942;BME280;63506;49.346;8.798;2022-09-17T09:44:02;62790.56;;;-145.49;100.00
74942;BME280;63506;49.346;8.798;2022-09-17T09:54:58;62790.56;;;-145.49;100.00
74942;BME280;63506;49.346;8.798;2022-09-17T10:03:01;62790.56;;;-145.49;100.00
74942;BME280;63506;49.346;8.798;2022-09-17T10:05:33;62790.56;;;-145.49;100.00
74942;BME280;63506;49.346;8.798;2022-09-17T10:07:59;62790.56;;;-145.49;100.00
74942;BME280;63506;49.346;8.798;2022-09-17T10:10:37;62790.56;;;-145.49;100.00
74942;BME280;63506;49.346;8.798;2022-09-17T10:13:19;62790.56;;;-145.49;100.00
74942;BME280;63506;49.346;8.798;2022-09-17T10:15:49;62790.56;;;-145.49;100.00
74942;BME280;63506;49.346;8.798;2022-09-17T10:18:17;62790.56;;;-145.49;100.00
74942;BME280;63506;49.346;8.798;2022-09-17T10:20:59;62790.56;;;-145.49;100.00
74942;BME280;63506;49.346;8.798;2022-09-17T10:23:32;62790.56;;;-145.49;100.00
74942;BME280;63506;49.346;8.798;2022-09-17T10:26:05;62790.56;;;-145.49;100.00
74942;BME280;63506;49.346;8.798;2022-09-17T10:28:53;62790.56;;;-145.49;100.00
74942;BME280;63506;49.346;8.798;2022-09-17T10:31:23;62790.56;;;-145.49;100.00
74942;BME280;63506;49.346;8.798;2022-09-17T10:34:02;62790.56;;;-145.49;100.00
74942;BME280;63506;49.346;8.798;2022-09-17T10:36:38;62790.56;;;-145.49;100.00
74942;BME280;63506;49.346;8.798;2022-09-17T10:42:01;62790.56;;;-145.49;100.00
74942;BME280;63506;49.346;8.798;2022-09-17T10:44:30;62790.56;;;-145.49;100.00
74942;BME280;63506;49.346;8.798;2022-09-17T10:47:18;62790.56;;;-145.49;100.00
74942;BME280;63506;49.346;8.798;2022-09-17T10:52:51;62790.56;;;-145.49;100.00
74942;BME280;63506;49.346;8.798;2022-09-17T11:01:05;62790.56;;;-145.49;100.00
74942;BME280;63506;49.346;8.798;2022-09-17T11:09:23;62790.56;;;-145.49;100.00
74942;BME280;63506;49.346;8.798;2022-09-17T11:14:54;62790.56;;;-145.49;100.00
74942;BME280;63506;49.346;8.798;2022-09-17T11:20:40;62790.56;;;-145.49;100.00
74942;BME280;63506;49.346;8.798;2022-09-17T11:35:24;62790.56;;;-145.49;100.00
74942;BME280;63506;49.346;8.798;2022-09-17T11:40:59;62790.56;;;-145.49;100.00
74942;BME280;63506;49.346;8.798;2022-09-17T11:43:32;62790.56;;;-145.49;100.00
74942;BME280;63506;49.346;8.798;2022-09-17T11:46:08;62790.56;;;-145.49;100.00
74942;BME280;63506;49.346;8.798;2022-09-17T11:48:42;62790.56;;;-145.49;100.00
74942;BME280;63506;49.346;8.798;2022-09-17T11:54:05;62790.56;;;-145.49;100.00
74942;BME280;63506;49.346;8.798;2022-09-17T11:56:41;62790.56;;;-145.49;100.00
74942;BME280;63506;49.346;8.798;2022-09-17T11:59:16;62790.56;;;-145.49;100.00
74942;BME280;63506;49.346;8.798;2022-09-17T12:01:52;62790.56;;;-145.49;100.00
74942;BME280;63506;49.346;8.798;2022-09-17T12:04:41;62790.56;;;-145.49;100.00
74942;BME280;63506;49.346;8.798;2022-09-17T12:07:31;62790.56;;;-145.49;100.00
74942;BME280;63506;49.346;8.798;2022-09-17T12:10:27;62790.56;;;-145.49;100.00
74942;BME280;63506;49.346;8.798;2022-09-17T12:15:38;62790.56;;;-145.49;100.00
74942;BME280;63506;49.346;8.798;2022-09-17T12:20:40;62790.56;;;-145.49;100.00
74942;BME280;63506;49.346;8.798;2022-09-17T12:23:16;62790.56;;;-145.49;100.00
74942;BME280;63506;49.346;8.798;2022-09-17T12:28:34;62790.56;;;-145.49;100.00
74942;BME280;63506;49.346;8.798;2022-09-17T12:31:12;62790.56;;;-145.49;100.00
74942;BME280;63506;49.346;8.798;2022-09-17T12:33:45;62790.56;;;-145.49;100.00
74942;BME280;63506;49.346;8.798;2022-09-17T12:36:39;62790.56;;;-145.49;100.00
74942;BME280;63506;49.346;8.798;2022-09-17T12:44:48;62790.56;;;-145.49;100.00
74942;BME280;63506;49.346;8.798;2022-09-17T12:50:45;62790.56;;;-145.49;100.00
74942;BME280;63506;49.346;8.798;2022-09-17T13:01:24;62790.56;;;-145.49;100.00
74942;BME280;63506;49.346;8.798;2022-09-17T13:04:05;62790.56;;;-145.49;100.00
74942;BME280;63506;49.346;8.798;2022-09-17T13:23:43;62790.56;;;-145.49;100.00
74942;BME280;63506;49.346;8.798;2022-09-17T13:26:13;62790.56;;;-145.49;100.00
74942;BME280;63506;49.346;8.798;2022-09-17T13:28:48;62790.56;;;-145.49;100.00
74942;BME280;63506;49.346;8.798;2022-09-17T13:31:45;62790.56;;;-145.49;100.00
74942;BME280;63506;49.346;8.798;2022-09-17T13:42:25;62790.56;;;-145.49;100.00
74942;BME280;63506;49.346;8.798;2022-09-17T13:45:10;62790.56;;;-145.49;100.00
74942;BME280;63506;49.346;8.798;2022-09-17T13:50:35;62790.56;;;-145.49;100.00
74942;BME280;63506;49.346;8.798;2022-09-17T13:55:42;62790.56;;;-145.49;100.00
74942;BME280;63506;49.346;8.798;2022-09-17T14:19:29;62790.56;;;-145.49;100.00
74942;BME280;63506;49.346;8.798;2022-09-17T14:21:59;62790.56;;;-145.49;100.00
74942;BME280;63506;49.346;8.798;2022-09-17T14:24:48;62790.56;;;-145.49;100.00
74942;BME280;63506;49.346;8.798;2022-09-17T14:38:30;62790.56;;;-145.49;100.00
74942;BME280;63506;49.346;8.798;2022-09-17T14:41:04;62790.56;;;-145.49;100.00
74942;BME280;63506;49.346;8.798;2022-09-17T14:46:25;62790.56;;;-145.49;100.00
74942;BME280;63506;49.346;8.798;2022-09-17T14:48:53;62790.56;;;-145.49;100.00
74942;BME280;63506;49.346;8.798;2022-09-17T14:54:05;62790.56;;;-145.49;100.00
74942;BME280;63506;49.346;8.798;2022-09-17T14:56:34;62790.56;;;-145.49;100.00
74942;BME280;63506;49.346;8.798;2022-09-17T14:59:04;62790.56;;;-145.49;100.00
74942;BME280;63506;49.346;8.798;2022-09-17T15:01:30;62790.56;;;-145.49;100.00
74942;BME280;63506;49.346;8.798;2022-09-17T15:06:38;62790.56;;;-145.49;100.00
74942;BME280;63506;49.346;8.798;2022-09-17T15:09:10;62790.56;;;-145.49;100.00
74942;BME280;63506;49.346;8.798;2022-09-17T15:11:42;62790.56;;;-145.49;100.00
74942;BME280;63506;49.346;8.798;2022-09-17T15:14:17;62790.56;;;-145.49;100.00
74942;BME280;63506;49.346;8.798;2022-09-17T15:16:50;62790.56;;;-145.49;100.00
74942;BME280;63506;49.346;8.798;2022-09-17T15:19:33;62790.56;;;-145.49;100.00
74942;BME280;63506;49.346;8.798;2022-09-17T15:27:31;62790.56;;;-145.49;100.00
74942;BME280;63506;49.346;8.798;2022-09-17T15:30:04;62790.56;;;-145.49;100.00
74942;BME280;63506;49.346;8.798;2022-09-17T15:32:32;62790.56;;;-145.49;100.00
74942;BME280;63506;49.346;8.798;2022-09-17T15:48:46;62790.56;;;-145.49;100.00
74942;BME280;63506;49.346;8.798;2022-09-17T15:51:31;62790.56;;;-145.49;100.00
74942;BME280;63506;49.346;8.798;2022-09-17T15:54:23;62790.56;;;-145.49;100.00
74942;BME280;63506;49.346;8.798;2022-09-17T15:56:56;62790.56;;;-145.49;100.00
74942;BME280;63506;49.346;8.798;2022-09-17T15:59:31;62790.56;;;-145.49;100.00
74942;BME280;63506;49.346;8.798;2022-09-17T16:02:00;62790.56;;;-145.49;100.00
74942;BME280;63506;49.346;8.798;2022-09-17T16:04:31;62790.56;;;-145.49;100.00
74942;BME280;63506;49.346;8.798;2022-09-17T16:09:50;62790.56;;;-145.49;100.00
74942;BME280;63506;49.346;8.798;2022-09-17T16:12:25;62790.56;;;-145.49;100.00
74942;BME280;63506;49.346;8.798;2022-09-17T16:14:54;62790.56;;;-145.49;100.00
74942;BME280;63506;49.346;8.798;2022-09-17T16:20:13;62790.56;;;-145.49;100.00
74942;BME280;63506;49.346;8.798;2022-09-17T16:22:44;62790.56;;;-145.49;100.00
74942;BME280;63506;49.346;8.798;2022-09-17T16:25:12;62790.56;;;-145.49;100.00
74942;BME280;63506;49.346;8.798;2022-09-17T16:30:13;62790.56;;;-145.49;100.00
74942;BME280;63506;49.346;8.798;2022-09-17T16:32:39;62790.56;;;-145.49;100.00
74942;BME280;63506;49.346;8.798;2022-09-17T16:35:06;62790.56;;;-145.49;100.00
74942;BME280;63506;49.346;8.798;2022-09-17T16:37:35;62790.56;;;-145.49;100.00
74942;BME280;63506;49.346;8.798;2022-09-17T16:40:02;62790.56;;;-145.49;100.00
74942;BME280;63506;49.346;8.798;2022-09-17T16:42:33;62790.56;;;-145.49;100.00
74942;BME280;63506;49.346;8.798;2022-09-17T16:44:59;62790.56;;;-145.49;100.00
74942;BME280;63506;49.346;8.798;2022-09-17T16:47:33;62790.56;;;-145.49;100.00
74942;BME280;63506;49.346;8.798;2022-09-17T16:50:09;62790.56;;;-145.49;100.00
74942;BME280;63506;49.346;8.798;2022-09-17T16:52:47;62790.56;;;-145.49;100.00
74942;BME280;63506;49.346;8.798;2022-09-17T16:55:15;62790.56;;;-145.49;100.00
74942;BME280;63506;49.346;8.798;2022-09-17T16:57:47;62790.56;;;-145.49;100.00
74942;BME280;63506;49.346;8.798;2022-09-17T17:00:16;62790.56;;;-145.49;100.00
74942;BME280;63506;49.346;8.798;2022-09-17T17:02:53;62790.56;;;-145.49;100.00
74942;BME280;63506;49.346;8.798;2022-09-17T17:05:20;62790.56;;;-145.49;100.00
74942;BME280;63506;49.346;8.798;2022-09-17T17:07:46;62790.56;;;-145.49;100.00
74942;BME280;63506;49.346;8.798;2022-09-17T17:10:13;62790.56;;;-145.49;100.00